sensor_id;sensor_type;location;lat;lon;timestamp;P1;durP1;ratioP1;P2;durP2;ratioP2
13421;SDS011;6782;55.904;13.396;2023-09-19T00:00:39;11.50;;;8.55;;
13421;SDS011;6782;55.904;13.396;2023-09-19T00:03:29;12.68;;;8.82;;
13421;SDS011;6782;55.904;13.396;2023-09-19T00:06:16;10.18;;;7.63;;
13421;SDS011;6782;55.904;13.396;2023-09-19T00:09:03;12.75;;;9.18;;
13421;SDS011;6782;55.904;13.396;2023-09-19T00:11:55;11.10;;;9.27;;
13421;SDS011;6782;55.904;13.396;2023-09-19T00:14:42;9.73;;;8.10;;
13421;SDS011;6782;55.904;13.396;2023-09-19T00:17:29;9.77;;;8.75;;
13421;SDS011;6782;55.904;13.396;2023-09-19T00:20:19;12.02;;;9.40;;
13421;SDS011;6782;55.904;13.396;2023-09-19T00:23:08;10.55;;;9.10;;
13421;SDS011;6782;55.904;13.396;2023-09-19T00:25:58;9.52;;;8.57;;
13421;SDS011;6782;55.904;13.396;2023-09-19T00:28:45;11.30;;;7.88;;
13421;SDS011;6782;55.904;13.396;2023-09-19T00:31:33;10.85;;;8.73;;
13421;SDS011;6782;55.904;13.396;2023-09-19T00:34:20;9.35;;;8.30;;
13421;SDS011;6782;55.904;13.396;2023-09-19T00:37:08;9.98;;;7.95;;
13421;SDS011;6782;55.904;13.396;2023-09-19T00:39:56;10.93;;;8.10;;
13421;SDS011;6782;55.904;13.396;2023-09-19T00:42:44;8.68;;;7.82;;
13421;SDS011;6782;55.904;13.396;2023-09-19T00:45:32;11.10;;;8.02;;
13421;SDS011;6782;55.904;13.396;2023-09-19T00:48:19;8.07;;;7.28;;
13421;SDS011;6782;55.904;13.396;2023-09-19T00:51:07;8.63;;;7.80;;
13421;SDS011;6782;55.904;13.396;2023-09-19T00:53:56;10.10;;;8.10;;
13421;SDS011;6782;55.904;13.396;2023-09-19T00:56:45;10.57;;;7.03;;
13421;SDS011;6782;55.904;13.396;2023-09-19T00:59:34;10.05;;;7.13;;
13421;SDS011;6782;55.904;13.396;2023-09-19T01:02:22;9.63;;;7.72;;
13421;SDS011;6782;55.904;13.396;2023-09-19T01:05:09;10.30;;;7.45;;
13421;SDS011;6782;55.904;13.396;2023-09-19T01:07:57;9.77;;;7.13;;
13421;SDS011;6782;55.904;13.396;2023-09-19T01:10:49;8.68;;;6.82;;
13421;SDS011;6782;55.904;13.396;2023-09-19T01:13:43;9.38;;;7.32;;
13421;SDS011;6782;55.904;13.396;2023-09-19T01:16:45;9.63;;;7.38;;
13421;SDS011;6782;55.904;13.396;2023-09-19T01:19:53;9.52;;;7.00;;
13421;SDS011;6782;55.904;13.396;2023-09-19T01:22:56;9.95;;;6.38;;
13421;SDS011;6782;55.904;13.396;2023-09-19T01:26:07;9.02;;;6.57;;
13421;SDS011;6782;55.904;13.396;2023-09-19T01:29:12;10.10;;;6.18;;
13421;SDS011;6782;55.904;13.396;2023-09-19T01:32:17;9.45;;;6.28;;
13421;SDS011;6782;55.904;13.396;2023-09-19T01:35:07;8.23;;;6.18;;
13421;SDS011;6782;55.904;13.396;2023-09-19T01:37:58;8.80;;;7.85;;
13421;SDS011;6782;55.904;13.396;2023-09-19T01:40:47;8.68;;;5.85;;
13421;SDS011;6782;55.904;13.396;2023-09-19T01:43:43;6.55;;;5.80;;
13421;SDS011;6782;55.904;13.396;2023-09-19T01:46:36;8.63;;;5.95;;
13421;SDS011;6782;55.904;13.396;2023-09-19T01:49:31;8.57;;;5.47;;
13421;SDS011;6782;55.904;13.396;2023-09-19T01:52:24;7.38;;;5.68;;
13421;SDS011;6782;55.904;13.396;2023-09-19T01:55:17;5.95;;;5.00;;
13421;SDS011;6782;55.904;13.396;2023-09-19T01:58:06;6.10;;;5.18;;
13421;SDS011;6782;55.904;13.396;2023-09-19T02:00:58;8.95;;;5.55;;
13421;SDS011;6782;55.904;13.396;2023-09-19T02:03:47;12.13;;;5.80;;
13421;SDS011;6782;55.904;13.396;2023-09-19T02:06:36;9.75;;;5.63;;
13421;SDS011;6782;55.904;13.396;2023-09-19T02:09:26;6.43;;;5.65;;
13421;SDS011;6782;55.904;13.396;2023-09-19T02:12:13;6.05;;;5.30;;
13421;SDS011;6782;55.904;13.396;2023-09-19T02:15:01;7.47;;;5.47;;
13421;SDS011;6782;55.904;13.396;2023-09-19T02:17:48;6.57;;;5.13;;
13421;SDS011;6782;55.904;13.396;2023-09-19T02:20:52;6.95;;;5.53;;
13421;SDS011;6782;55.904;13.396;2023-09-19T02:23:40;6.90;;;5.10;;
13421;SDS011;6782;55.904;13.396;2023-09-19T02:26:27;7.72;;;4.95;;
13421;SDS011;6782;55.904;13.396;2023-09-19T02:29:14;8.95;;;5.25;;
13421;SDS011;6782;55.904;13.396;2023-09-19T02:32:01;8.85;;;5.53;;
13421;SDS011;6782;55.904;13.396;2023-09-19T02:34:49;8.60;;;5.03;;
13421;SDS011;6782;55.904;13.396;2023-09-19T02:37:38;6.25;;;5.47;;
13421;SDS011;6782;55.904;13.396;2023-09-19T02:40:26;7.22;;;5.20;;
13421;SDS011;6782;55.904;13.396;2023-09-19T02:43:13;6.93;;;4.57;;
13421;SDS011;6782;55.904;13.396;2023-09-19T02:46:00;6.35;;;4.68;;
13421;SDS011;6782;55.904;13.396;2023-09-19T02:48:48;5.85;;;4.10;;
13421;SDS011;6782;55.904;13.396;2023-09-19T02:51:36;7.25;;;4.20;;
13421;SDS011;6782;55.904;13.396;2023-09-19T02:54:40;5.25;;;4.10;;
13421;SDS011;6782;55.904;13.396;2023-09-19T02:57:31;6.00;;;4.20;;
13421;SDS011;6782;55.904;13.396;2023-09-19T03:00:41;4.30;;;3.85;;
13421;SDS011;6782;55.904;13.396;2023-09-19T03:03:37;8.07;;;3.75;;
13421;SDS011;6782;55.904;13.396;2023-09-19T03:06:26;6.28;;;4.03;;
13421;SDS011;6782;55.904;13.396;2023-09-19T03:09:16;4.35;;;3.40;;
13421;SDS011;6782;55.904;13.396;2023-09-19T03:12:06;4.43;;;2.90;;
13421;SDS011;6782;55.904;13.396;2023-09-19T03:14:53;4.28;;;2.30;;
13421;SDS011;6782;55.904;13.396;2023-09-19T03:17:42;5.50;;;2.60;;
13421;SDS011;6782;55.904;13.396;2023-09-19T03:20:30;5.13;;;2.30;;
13421;SDS011;6782;55.904;13.396;2023-09-19T03:23:17;5.20;;;2.25;;
13421;SDS011;6782;55.904;13.396;2023-09-19T03:26:04;4.25;;;2.35;;
13421;SDS011;6782;55.904;13.396;2023-09-19T03:31:42;6.10;;;2.88;;
13421;SDS011;6782;55.904;13.396;2023-09-19T03:34:29;3.40;;;2.15;;
13421;SDS011;6782;55.904;13.396;2023-09-19T03:37:16;4.82;;;2.60;;
13421;SDS011;6782;55.904;13.396;2023-09-19T03:40:04;3.35;;;2.30;;
13421;SDS011;6782;55.904;13.396;2023-09-19T03:42:53;4.85;;;2.40;;
13421;SDS011;6782;55.904;13.396;2023-09-19T03:45:41;5.85;;;2.90;;
13421;SDS011;6782;55.904;13.396;2023-09-19T03:48:28;5.28;;;2.50;;
13421;SDS011;6782;55.904;13.396;2023-09-19T03:51:16;4.25;;;2.72;;
13421;SDS011;6782;55.904;13.396;2023-09-19T03:54:03;4.90;;;2.70;;
13421;SDS011;6782;55.904;13.396;2023-09-19T03:56:50;4.25;;;2.63;;
13421;SDS011;6782;55.904;13.396;2023-09-19T03:59:38;3.88;;;2.80;;
13421;SDS011;6782;55.904;13.396;2023-09-19T04:02:29;2.45;;;2.13;;
13421;SDS011;6782;55.904;13.396;2023-09-19T04:05:18;4.97;;;2.60;;
13421;SDS011;6782;55.904;13.396;2023-09-19T04:08:05;4.72;;;2.60;;
13421;SDS011;6782;55.904;13.396;2023-09-19T04:10:52;7.13;;;2.55;;
13421;SDS011;6782;55.904;13.396;2023-09-19T04:13:39;4.95;;;2.72;;
13421;SDS011;6782;55.904;13.396;2023-09-19T04:16:27;3.63;;;2.30;;
13421;SDS011;6782;55.904;13.396;2023-09-19T04:19:15;5.80;;;3.10;;
13421;SDS011;6782;55.904;13.396;2023-09-19T04:22:02;5.80;;;2.50;;
13421;SDS011;6782;55.904;13.396;2023-09-19T04:24:50;5.55;;;3.00;;
13421;SDS011;6782;55.904;13.396;2023-09-19T04:27:37;4.28;;;2.70;;
13421;SDS011;6782;55.904;13.396;2023-09-19T04:30:25;5.32;;;2.75;;
13421;SDS011;6782;55.904;13.396;2023-09-19T04:33:12;5.40;;;2.88;;
13421;SDS011;6782;55.904;13.396;2023-09-19T04:36:01;3.63;;;2.38;;
13421;SDS011;6782;55.904;13.396;2023-09-19T04:38:50;6.88;;;2.97;;
13421;SDS011;6782;55.904;13.396;2023-09-19T04:41:39;4.05;;;2.42;;
13421;SDS011;6782;55.904;13.396;2023-09-19T04:44:27;5.78;;;2.50;;
13421;SDS011;6782;55.904;13.396;2023-09-19T04:47:14;3.45;;;2.72;;
13421;SDS011;6782;55.904;13.396;2023-09-19T04:50:01;6.85;;;3.13;;
13421;SDS011;6782;55.904;13.396;2023-09-19T04:52:51;5.90;;;3.10;;
13421;SDS011;6782;55.904;13.396;2023-09-19T04:55:39;6.80;;;2.53;;
13421;SDS011;6782;55.904;13.396;2023-09-19T04:58:26;6.47;;;2.72;;
13421;SDS011;6782;55.904;13.396;2023-09-19T05:01:13;6.15;;;2.60;;
13421;SDS011;6782;55.904;13.396;2023-09-19T05:04:00;4.82;;;2.65;;
13421;SDS011;6782;55.904;13.396;2023-09-19T05:06:50;9.05;;;3.00;;
13421;SDS011;6782;55.904;13.396;2023-09-19T05:09:39;5.13;;;2.70;;
13421;SDS011;6782;55.904;13.396;2023-09-19T05:12:28;6.75;;;2.60;;
13421;SDS011;6782;55.904;13.396;2023-09-19T05:15:16;6.85;;;2.80;;
13421;SDS011;6782;55.904;13.396;2023-09-19T05:18:06;6.47;;;2.78;;
13421;SDS011;6782;55.904;13.396;2023-09-19T05:20:53;9.70;;;2.90;;
13421;SDS011;6782;55.904;13.396;2023-09-19T05:23:40;6.22;;;3.13;;
13421;SDS011;6782;55.904;13.396;2023-09-19T05:26:29;8.27;;;2.70;;
13421;SDS011;6782;55.904;13.396;2023-09-19T05:29:16;4.20;;;2.25;;
13421;SDS011;6782;55.904;13.396;2023-09-19T05:32:04;7.10;;;3.03;;
13421;SDS011;6782;55.904;13.396;2023-09-19T05:34:52;8.57;;;2.92;;
13421;SDS011;6782;55.904;13.396;2023-09-19T05:37:41;7.55;;;3.17;;
13421;SDS011;6782;55.904;13.396;2023-09-19T05:40:29;8.25;;;3.20;;
13421;SDS011;6782;55.904;13.396;2023-09-19T05:43:18;6.32;;;2.70;;
13421;SDS011;6782;55.904;13.396;2023-09-19T05:46:05;7.15;;;2.58;;
13421;SDS011;6782;55.904;13.396;2023-09-19T05:48:53;7.88;;;2.92;;
13421;SDS011;6782;55.904;13.396;2023-09-19T05:51:42;8.38;;;2.60;;
13421;SDS011;6782;55.904;13.396;2023-09-19T05:54:29;6.57;;;2.58;;
13421;SDS011;6782;55.904;13.396;2023-09-19T05:57:16;10.20;;;3.03;;
13421;SDS011;6782;55.904;13.396;2023-09-19T06:00:05;7.65;;;3.10;;
13421;SDS011;6782;55.904;13.396;2023-09-19T06:02:56;8.82;;;2.88;;
13421;SDS011;6782;55.904;13.396;2023-09-19T06:05:44;9.32;;;2.78;;
13421;SDS011;6782;55.904;13.396;2023-09-19T06:08:34;8.05;;;2.70;;
13421;SDS011;6782;55.904;13.396;2023-09-19T06:11:22;8.10;;;2.63;;
13421;SDS011;6782;55.904;13.396;2023-09-19T06:14:12;7.82;;;3.15;;
13421;SDS011;6782;55.904;13.396;2023-09-19T06:17:01;8.65;;;3.42;;
13421;SDS011;6782;55.904;13.396;2023-09-19T06:19:48;6.88;;;2.50;;
13421;SDS011;6782;55.904;13.396;2023-09-19T06:22:35;7.45;;;3.25;;
13421;SDS011;6782;55.904;13.396;2023-09-19T06:25:23;9.18;;;3.28;;
13421;SDS011;6782;55.904;13.396;2023-09-19T06:28:11;10.40;;;3.08;;
13421;SDS011;6782;55.904;13.396;2023-09-19T06:30:58;9.82;;;3.15;;
13421;SDS011;6782;55.904;13.396;2023-09-19T06:33:47;11.07;;;3.30;;
13421;SDS011;6782;55.904;13.396;2023-09-19T06:36:35;5.53;;;3.08;;
13421;SDS011;6782;55.904;13.396;2023-09-19T06:39:23;8.77;;;3.35;;
13421;SDS011;6782;55.904;13.396;2023-09-19T06:42:11;9.60;;;3.17;;
13421;SDS011;6782;55.904;13.396;2023-09-19T06:44:58;7.03;;;2.70;;
13421;SDS011;6782;55.904;13.396;2023-09-19T06:47:46;10.30;;;3.10;;
13421;SDS011;6782;55.904;13.396;2023-09-19T06:50:37;6.75;;;3.05;;
13421;SDS011;6782;55.904;13.396;2023-09-19T06:53:26;8.50;;;2.63;;
13421;SDS011;6782;55.904;13.396;2023-09-19T06:56:17;8.43;;;2.95;;
13421;SDS011;6782;55.904;13.396;2023-09-19T06:59:04;7.97;;;2.90;;
13421;SDS011;6782;55.904;13.396;2023-09-19T07:01:52;8.85;;;2.70;;
13421;SDS011;6782;55.904;13.396;2023-09-19T07:04:39;8.70;;;2.80;;
13421;SDS011;6782;55.904;13.396;2023-09-19T07:07:29;5.72;;;2.67;;
13421;SDS011;6782;55.904;13.396;2023-09-19T07:10:16;9.23;;;2.85;;
13421;SDS011;6782;55.904;13.396;2023-09-19T07:13:04;9.00;;;2.72;;
13421;SDS011;6782;55.904;13.396;2023-09-19T07:15:54;7.72;;;3.28;;
13421;SDS011;6782;55.904;13.396;2023-09-19T07:18:42;6.85;;;3.10;;
13421;SDS011;6782;55.904;13.396;2023-09-19T07:21:30;7.53;;;2.35;;
13421;SDS011;6782;55.904;13.396;2023-09-19T07:24:22;5.95;;;2.58;;
13421;SDS011;6782;55.904;13.396;2023-09-19T07:27:12;5.65;;;2.58;;
13421;SDS011;6782;55.904;13.396;2023-09-19T07:29:59;10.48;;;2.70;;
13421;SDS011;6782;55.904;13.396;2023-09-19T07:32:46;7.75;;;3.20;;
13421;SDS011;6782;55.904;13.396;2023-09-19T07:35:33;7.47;;;3.03;;
13421;SDS011;6782;55.904;13.396;2023-09-19T07:38:21;9.30;;;2.80;;
13421;SDS011;6782;55.904;13.396;2023-09-19T07:41:10;8.77;;;3.00;;
13421;SDS011;6782;55.904;13.396;2023-09-19T07:43:57;7.18;;;3.22;;
13421;SDS011;6782;55.904;13.396;2023-09-19T07:46:44;8.40;;;2.72;;
13421;SDS011;6782;55.904;13.396;2023-09-19T07:49:31;10.38;;;3.00;;
13421;SDS011;6782;55.904;13.396;2023-09-19T07:52:18;8.82;;;2.97;;
13421;SDS011;6782;55.904;13.396;2023-09-19T07:55:08;8.48;;;3.30;;
13421;SDS011;6782;55.904;13.396;2023-09-19T07:57:58;11.60;;;3.50;;
13421;SDS011;6782;55.904;13.396;2023-09-19T08:00:45;7.68;;;3.03;;
13421;SDS011;6782;55.904;13.396;2023-09-19T08:03:32;9.18;;;3.17;;
13421;SDS011;6782;55.904;13.396;2023-09-19T08:06:20;6.03;;;2.90;;
13421;SDS011;6782;55.904;13.396;2023-09-19T08:09:07;9.55;;;3.20;;
13421;SDS011;6782;55.904;13.396;2023-09-19T08:11:56;10.25;;;3.10;;
13421;SDS011;6782;55.904;13.396;2023-09-19T08:14:45;11.63;;;3.40;;
13421;SDS011;6782;55.904;13.396;2023-09-19T08:17:33;8.98;;;3.40;;
13421;SDS011;6782;55.904;13.396;2023-09-19T08:20:21;7.28;;;2.75;;
13421;SDS011;6782;55.904;13.396;2023-09-19T08:23:08;11.63;;;3.22;;
13421;SDS011;6782;55.904;13.396;2023-09-19T08:25:56;10.02;;;3.58;;
13421;SDS011;6782;55.904;13.396;2023-09-19T08:28:45;9.85;;;3.40;;
13421;SDS011;6782;55.904;13.396;2023-09-19T08:31:35;9.05;;;3.08;;
13421;SDS011;6782;55.904;13.396;2023-09-19T08:34:22;8.40;;;3.08;;
13421;SDS011;6782;55.904;13.396;2023-09-19T08:37:10;7.70;;;3.08;;
13421;SDS011;6782;55.904;13.396;2023-09-19T08:39:58;9.50;;;3.03;;
13421;SDS011;6782;55.904;13.396;2023-09-19T08:42:48;10.77;;;3.03;;
13421;SDS011;6782;55.904;13.396;2023-09-19T08:45:36;8.18;;;2.95;;
13421;SDS011;6782;55.904;13.396;2023-09-19T08:48:27;10.85;;;3.10;;
13421;SDS011;6782;55.904;13.396;2023-09-19T08:51:17;9.98;;;2.75;;
13421;SDS011;6782;55.904;13.396;2023-09-19T08:54:08;15.20;;;3.22;;
13421;SDS011;6782;55.904;13.396;2023-09-19T08:56:56;7.15;;;2.67;;
13421;SDS011;6782;55.904;13.396;2023-09-19T08:59:50;10.43;;;2.80;;
13421;SDS011;6782;55.904;13.396;2023-09-19T09:02:40;10.98;;;3.75;;
13421;SDS011;6782;55.904;13.396;2023-09-19T09:05:31;8.77;;;2.85;;
13421;SDS011;6782;55.904;13.396;2023-09-19T09:08:19;15.68;;;3.60;;
13421;SDS011;6782;55.904;13.396;2023-09-19T09:11:08;7.85;;;2.85;;
13421;SDS011;6782;55.904;13.396;2023-09-19T09:13:55;8.02;;;2.97;;
13421;SDS011;6782;55.904;13.396;2023-09-19T09:16:43;8.85;;;3.22;;
13421;SDS011;6782;55.904;13.396;2023-09-19T09:19:30;9.38;;;3.40;;
13421;SDS011;6782;55.904;13.396;2023-09-19T09:22:19;8.43;;;3.42;;
13421;SDS011;6782;55.904;13.396;2023-09-19T09:25:07;10.55;;;3.30;;
13421;SDS011;6782;55.904;13.396;2023-09-19T09:28:04;11.40;;;3.28;;
13421;SDS011;6782;55.904;13.396;2023-09-19T09:30:52;9.40;;;3.08;;
13421;SDS011;6782;55.904;13.396;2023-09-19T09:33:39;9.32;;;3.55;;
13421;SDS011;6782;55.904;13.396;2023-09-19T09:36:35;9.93;;;3.28;;
13421;SDS011;6782;55.904;13.396;2023-09-19T09:39:31;6.28;;;2.22;;
13421;SDS011;6782;55.904;13.396;2023-09-19T09:42:29;4.43;;;1.90;;
13421;SDS011;6782;55.904;13.396;2023-09-19T09:45:19;6.07;;;1.80;;
13421;SDS011;6782;55.904;13.396;2023-09-19T09:48:14;4.47;;;1.60;;
13421;SDS011;6782;55.904;13.396;2023-09-19T09:51:00;3.92;;;1.35;;
13421;SDS011;6782;55.904;13.396;2023-09-19T09:53:48;6.03;;;1.63;;
13421;SDS011;6782;55.904;13.396;2023-09-19T09:56:37;6.78;;;1.75;;
13421;SDS011;6782;55.904;13.396;2023-09-19T09:59:43;4.30;;;1.73;;
13421;SDS011;6782;55.904;13.396;2023-09-19T10:02:34;4.43;;;1.73;;
13421;SDS011;6782;55.904;13.396;2023-09-19T10:05:25;3.25;;;1.60;;
13421;SDS011;6782;55.904;13.396;2023-09-19T10:08:25;6.75;;;2.28;;
13421;SDS011;6782;55.904;13.396;2023-09-19T10:11:16;6.53;;;2.20;;
13421;SDS011;6782;55.904;13.396;2023-09-19T10:14:07;5.45;;;1.98;;
13421;SDS011;6782;55.904;13.396;2023-09-19T10:16:55;4.13;;;1.85;;
13421;SDS011;6782;55.904;13.396;2023-09-19T10:19:54;3.75;;;1.80;;
13421;SDS011;6782;55.904;13.396;2023-09-19T10:22:43;4.20;;;1.70;;
13421;SDS011;6782;55.904;13.396;2023-09-19T10:25:42;3.80;;;1.90;;
13421;SDS011;6782;55.904;13.396;2023-09-19T10:28:32;6.97;;;2.03;;
13421;SDS011;6782;55.904;13.396;2023-09-19T10:31:23;5.90;;;1.92;;
13421;SDS011;6782;55.904;13.396;2023-09-19T10:34:12;8.15;;;2.22;;
13421;SDS011;6782;55.904;13.396;2023-09-19T10:37:01;7.65;;;2.13;;
13421;SDS011;6782;55.904;13.396;2023-09-19T10:39:51;5.57;;;2.30;;
13421;SDS011;6782;55.904;13.396;2023-09-19T10:42:41;7.90;;;2.33;;
13421;SDS011;6782;55.904;13.396;2023-09-19T10:45:31;4.93;;;2.38;;
13421;SDS011;6782;55.904;13.396;2023-09-19T10:48:22;4.65;;;1.95;;
13421;SDS011;6782;55.904;13.396;2023-09-19T10:51:11;4.50;;;1.85;;
13421;SDS011;6782;55.904;13.396;2023-09-19T10:54:04;4.53;;;1.60;;
13421;SDS011;6782;55.904;13.396;2023-09-19T10:56:57;6.60;;;2.40;;
13421;SDS011;6782;55.904;13.396;2023-09-19T11:00:00;5.90;;;2.00;;
13421;SDS011;6782;55.904;13.396;2023-09-19T11:03:19;6.68;;;2.40;;
13421;SDS011;6782;55.904;13.396;2023-09-19T11:06:11;7.55;;;2.00;;
13421;SDS011;6782;55.904;13.396;2023-09-19T11:09:02;5.47;;;2.35;;
13421;SDS011;6782;55.904;13.396;2023-09-19T11:12:01;6.57;;;2.30;;
13421;SDS011;6782;55.904;13.396;2023-09-19T11:14:50;3.30;;;2.00;;
13421;SDS011;6782;55.904;13.396;2023-09-19T11:17:38;4.63;;;2.20;;
13421;SDS011;6782;55.904;13.396;2023-09-19T11:20:26;7.70;;;2.30;;
13421;SDS011;6782;55.904;13.396;2023-09-19T11:23:28;5.40;;;2.03;;
13421;SDS011;6782;55.904;13.396;2023-09-19T11:26:32;9.52;;;2.58;;
13421;SDS011;6782;55.904;13.396;2023-09-19T11:29:29;5.82;;;2.45;;
13421;SDS011;6782;55.904;13.396;2023-09-19T11:32:17;5.60;;;2.10;;
13421;SDS011;6782;55.904;13.396;2023-09-19T11:35:59;9.00;;;2.47;;
13421;SDS011;6782;55.904;13.396;2023-09-19T11:39:01;8.05;;;2.20;;
13421;SDS011;6782;55.904;13.396;2023-09-19T11:41:54;7.00;;;2.33;;
13421;SDS011;6782;55.904;13.396;2023-09-19T11:44:42;7.05;;;2.30;;
13421;SDS011;6782;55.904;13.396;2023-09-19T11:47:29;4.43;;;1.75;;
13421;SDS011;6782;55.904;13.396;2023-09-19T11:50:18;4.10;;;1.80;;
13421;SDS011;6782;55.904;13.396;2023-09-19T11:53:07;3.63;;;1.45;;
13421;SDS011;6782;55.904;13.396;2023-09-19T11:55:57;4.88;;;1.90;;
13421;SDS011;6782;55.904;13.396;2023-09-19T11:58:46;3.83;;;1.45;;
13421;SDS011;6782;55.904;13.396;2023-09-19T12:01:42;3.85;;;1.90;;
13421;SDS011;6782;55.904;13.396;2023-09-19T12:04:43;5.05;;;1.45;;
13421;SDS011;6782;55.904;13.396;2023-09-19T12:07:41;3.42;;;1.23;;
13421;SDS011;6782;55.904;13.396;2023-09-19T12:10:29;4.93;;;1.58;;
13421;SDS011;6782;55.904;13.396;2023-09-19T12:13:18;3.55;;;1.50;;
13421;SDS011;6782;55.904;13.396;2023-09-19T12:16:10;2.97;;;1.50;;
13421;SDS011;6782;55.904;13.396;2023-09-19T12:19:15;4.50;;;1.85;;
13421;SDS011;6782;55.904;13.396;2023-09-19T12:22:07;3.30;;;1.63;;
13421;SDS011;6782;55.904;13.396;2023-09-19T12:25:05;4.20;;;1.55;;
13421;SDS011;6782;55.904;13.396;2023-09-19T12:27:54;4.00;;;2.00;;
13421;SDS011;6782;55.904;13.396;2023-09-19T12:30:43;4.40;;;1.73;;
13421;SDS011;6782;55.904;13.396;2023-09-19T12:33:31;5.57;;;1.60;;
13421;SDS011;6782;55.904;13.396;2023-09-19T12:36:19;4.72;;;1.58;;
13421;SDS011;6782;55.904;13.396;2023-09-19T12:39:10;5.32;;;1.95;;
13421;SDS011;6782;55.904;13.396;2023-09-19T12:41:59;5.25;;;1.88;;
13421;SDS011;6782;55.904;13.396;2023-09-19T12:44:50;6.18;;;1.90;;
13421;SDS011;6782;55.904;13.396;2023-09-19T12:47:45;6.43;;;1.92;;
13421;SDS011;6782;55.904;13.396;2023-09-19T12:51:06;4.95;;;2.10;;
13421;SDS011;6782;55.904;13.396;2023-09-19T12:53:57;2.42;;;1.60;;
13421;SDS011;6782;55.904;13.396;2023-09-19T12:56:44;5.72;;;2.05;;
13421;SDS011;6782;55.904;13.396;2023-09-19T12:59:34;6.13;;;1.92;;
13421;SDS011;6782;55.904;13.396;2023-09-19T13:02:23;6.45;;;2.30;;
13421;SDS011;6782;55.904;13.396;2023-09-19T13:05:13;4.90;;;2.00;;
13421;SDS011;6782;55.904;13.396;2023-09-19T13:08:04;6.53;;;2.15;;
13421;SDS011;6782;55.904;13.396;2023-09-19T13:11:06;4.90;;;2.45;;
13421;SDS011;6782;55.904;13.396;2023-09-19T13:14:13;5.30;;;2.15;;
13421;SDS011;6782;55.904;13.396;2023-09-19T13:17:02;7.07;;;2.10;;
13421;SDS011;6782;55.904;13.396;2023-09-19T13:19:53;7.30;;;2.22;;
13421;SDS011;6782;55.904;13.396;2023-09-19T13:22:44;7.70;;;2.38;;
13421;SDS011;6782;55.904;13.396;2023-09-19T13:25:35;5.03;;;2.22;;
13421;SDS011;6782;55.904;13.396;2023-09-19T13:28:22;5.85;;;2.20;;
13421;SDS011;6782;55.904;13.396;2023-09-19T13:31:09;5.13;;;2.13;;
13421;SDS011;6782;55.904;13.396;2023-09-19T13:33:57;7.97;;;2.13;;
13421;SDS011;6782;55.904;13.396;2023-09-19T13:36:45;7.43;;;2.60;;
13421;SDS011;6782;55.904;13.396;2023-09-19T13:39:35;6.95;;;2.08;;
13421;SDS011;6782;55.904;13.396;2023-09-19T13:42:23;8.75;;;2.70;;
13421;SDS011;6782;55.904;13.396;2023-09-19T13:45:15;8.18;;;2.58;;
13421;SDS011;6782;55.904;13.396;2023-09-19T13:48:04;7.18;;;2.55;;
13421;SDS011;6782;55.904;13.396;2023-09-19T13:50:51;4.10;;;2.80;;
13421;SDS011;6782;55.904;13.396;2023-09-19T13:53:39;9.30;;;2.88;;
13421;SDS011;6782;55.904;13.396;2023-09-19T13:56:28;7.18;;;2.83;;
13421;SDS011;6782;55.904;13.396;2023-09-19T13:59:17;10.63;;;3.30;;
13421;SDS011;6782;55.904;13.396;2023-09-19T14:02:04;9.10;;;3.70;;
13421;SDS011;6782;55.904;13.396;2023-09-19T14:04:52;10.07;;;2.83;;
13421;SDS011;6782;55.904;13.396;2023-09-19T14:07:40;8.60;;;3.38;;
13421;SDS011;6782;55.904;13.396;2023-09-19T14:10:29;9.25;;;3.00;;
13421;SDS011;6782;55.904;13.396;2023-09-19T14:13:26;9.90;;;3.40;;
13421;SDS011;6782;55.904;13.396;2023-09-19T14:16:16;9.27;;;3.00;;
13421;SDS011;6782;55.904;13.396;2023-09-19T14:19:07;8.88;;;3.50;;
13421;SDS011;6782;55.904;13.396;2023-09-19T14:21:55;10.07;;;3.78;;
13421;SDS011;6782;55.904;13.396;2023-09-19T14:24:42;7.47;;;2.88;;
13421;SDS011;6782;55.904;13.396;2023-09-19T14:27:48;7.20;;;2.90;;
13421;SDS011;6782;55.904;13.396;2023-09-19T14:33:57;7.70;;;2.85;;
13421;SDS011;6782;55.904;13.396;2023-09-19T14:36:49;5.95;;;2.80;;
13421;SDS011;6782;55.904;13.396;2023-09-19T14:39:42;5.57;;;2.63;;
13421;SDS011;6782;55.904;13.396;2023-09-19T14:42:30;9.25;;;3.28;;
13421;SDS011;6782;55.904;13.396;2023-09-19T14:45:28;9.50;;;2.88;;
13421;SDS011;6782;55.904;13.396;2023-09-19T14:51:30;7.20;;;2.45;;
13421;SDS011;6782;55.904;13.396;2023-09-19T14:54:33;7.55;;;2.92;;
13421;SDS011;6782;55.904;13.396;2023-09-19T14:57:44;5.82;;;2.47;;
13421;SDS011;6782;55.904;13.396;2023-09-19T15:07:06;7.57;;;2.90;;
13421;SDS011;6782;55.904;13.396;2023-09-19T15:09:55;10.15;;;2.92;;
13421;SDS011;6782;55.904;13.396;2023-09-19T15:12:46;7.65;;;2.90;;
13421;SDS011;6782;55.904;13.396;2023-09-19T15:15:58;8.05;;;3.08;;
13421;SDS011;6782;55.904;13.396;2023-09-19T15:18:46;10.45;;;3.40;;
13421;SDS011;6782;55.904;13.396;2023-09-19T15:21:35;7.50;;;3.40;;
13421;SDS011;6782;55.904;13.396;2023-09-19T15:24:23;9.20;;;3.45;;
13421;SDS011;6782;55.904;13.396;2023-09-19T15:27:12;9.65;;;3.70;;
13421;SDS011;6782;55.904;13.396;2023-09-19T15:29:59;7.55;;;3.35;;
13421;SDS011;6782;55.904;13.396;2023-09-19T15:32:48;5.65;;;3.10;;
13421;SDS011;6782;55.904;13.396;2023-09-19T15:35:37;10.55;;;3.63;;
13421;SDS011;6782;55.904;13.396;2023-09-19T15:38:26;9.00;;;3.13;;
13421;SDS011;6782;55.904;13.396;2023-09-19T15:41:13;8.57;;;3.20;;
13421;SDS011;6782;55.904;13.396;2023-09-19T15:44:01;10.85;;;3.15;;
13421;SDS011;6782;55.904;13.396;2023-09-19T15:46:49;9.23;;;3.45;;
13421;SDS011;6782;55.904;13.396;2023-09-19T15:49:36;7.28;;;3.35;;
13421;SDS011;6782;55.904;13.396;2023-09-19T15:52:23;6.35;;;3.20;;
13421;SDS011;6782;55.904;13.396;2023-09-19T15:55:13;6.30;;;2.92;;
13421;SDS011;6782;55.904;13.396;2023-09-19T15:58:00;5.68;;;2.50;;
13421;SDS011;6782;55.904;13.396;2023-09-19T16:00:51;9.30;;;2.80;;
13421;SDS011;6782;55.904;13.396;2023-09-19T16:03:38;11.45;;;3.42;;
13421;SDS011;6782;55.904;13.396;2023-09-19T16:06:29;11.20;;;3.53;;
13421;SDS011;6782;55.904;13.396;2023-09-19T16:09:17;7.78;;;2.85;;
13421;SDS011;6782;55.904;13.396;2023-09-19T16:12:07;8.43;;;2.92;;
13421;SDS011;6782;55.904;13.396;2023-09-19T16:14:56;8.88;;;3.00;;
13421;SDS011;6782;55.904;13.396;2023-09-19T16:17:44;7.45;;;2.80;;
13421;SDS011;6782;55.904;13.396;2023-09-19T16:20:31;6.72;;;3.05;;
13421;SDS011;6782;55.904;13.396;2023-09-19T16:23:19;8.45;;;2.80;;
13421;SDS011;6782;55.904;13.396;2023-09-19T16:26:07;6.63;;;2.97;;
13421;SDS011;6782;55.904;13.396;2023-09-19T16:28:57;9.32;;;3.40;;
13421;SDS011;6782;55.904;13.396;2023-09-19T16:31:47;10.13;;;3.63;;
13421;SDS011;6782;55.904;13.396;2023-09-19T16:34:35;7.22;;;3.40;;
13421;SDS011;6782;55.904;13.396;2023-09-19T16:37:22;6.53;;;2.90;;
13421;SDS011;6782;55.904;13.396;2023-09-19T16:40:10;10.63;;;3.67;;
13421;SDS011;6782;55.904;13.396;2023-09-19T16:42:57;6.10;;;3.00;;
13421;SDS011;6782;55.904;13.396;2023-09-19T16:45:53;11.05;;;3.63;;
13421;SDS011;6782;55.904;13.396;2023-09-19T16:48:41;9.98;;;3.75;;
13421;SDS011;6782;55.904;13.396;2023-09-19T16:51:30;6.30;;;3.33;;
13421;SDS011;6782;55.904;13.396;2023-09-19T16:54:18;10.20;;;3.97;;
13421;SDS011;6782;55.904;13.396;2023-09-19T16:57:05;13.02;;;3.60;;
13421;SDS011;6782;55.904;13.396;2023-09-19T16:59:52;10.60;;;3.28;;
13421;SDS011;6782;55.904;13.396;2023-09-19T17:02:43;7.88;;;3.50;;
13421;SDS011;6782;55.904;13.396;2023-09-19T17:05:33;7.28;;;3.58;;
13421;SDS011;6782;55.904;13.396;2023-09-19T17:08:22;10.15;;;3.67;;
13421;SDS011;6782;55.904;13.396;2023-09-19T17:11:10;8.05;;;3.58;;
13421;SDS011;6782;55.904;13.396;2023-09-19T17:14:00;7.78;;;3.72;;
13421;SDS011;6782;55.904;13.396;2023-09-19T17:16:48;12.95;;;4.18;;
13421;SDS011;6782;55.904;13.396;2023-09-19T17:19:37;13.27;;;3.85;;